TimeEDT,TemperatureF,Dew PointF,Humidity,Sea Level PressureIn,VisibilityMPH,Wind Direction,Wind SpeedMPH,Gust SpeedMPH,PrecipitationIn,Events,Conditions,WindDirDegrees,DateUTC
12:54 AM,55.9,52.0,87,29.91,10.0,Calm,Calm,-,N/A,,Overcast,0,2013-07-29 04:54:00
1:54 AM,55.0,52.0,89,29.91,10.0,WSW,5.8,-,N/A,,Overcast,240,2013-07-29 05:54:00
2:54 AM,55.0,51.1,86,29.92,10.0,Calm,Calm,-,N/A,,Overcast,0,2013-07-29 06:54:00
3:54 AM,54.0,52.0,93,29.93,10.0,Calm,Calm,-,N/A,,Overcast,0,2013-07-29 07:54:00
4:54 AM,51.1,50.0,96,29.94,10.0,Calm,Calm,-,N/A,,Clear,0,2013-07-29 08:54:00
5:54 AM,51.1,50.0,96,29.96,10.0,Calm,Calm,-,N/A,,Clear,0,2013-07-29 09:54:00
6:54 AM,51.1,50.0,96,29.98,10.0,Calm,Calm,-,N/A,,Clear,0,2013-07-29 10:54:00
7:54 AM,53.1,52.0,96,29.99,10.0,West,6.9,-,N/A,,Clear,270,2013-07-29 11:54:00
8:33 AM,55.4,53.6,94,29.99,10.0,Variable,4.6,-,N/A,,Partly Cloudy,0,2013-07-29 12:33:00
8:54 AM,55.9,53.1,90,30.00,10.0,West,6.9,-,N/A,,Partly Cloudy,270,2013-07-29 12:54:00
9:18 AM,57.2,55.4,94,30.00,10.0,NW,5.8,-,N/A,,Mostly Cloudy,320,2013-07-29 13:18:00
9:54 AM,59.0,55.0,87,30.01,10.0,Variable,5.8,-,N/A,,Overcast,0,2013-07-29 13:54:00
10:21 AM,62.6,55.4,77,30.01,10.0,Variable,3.5,-,N/A,,Mostly Cloudy,0,2013-07-29 14:21:00
10:28 AM,62.6,53.6,72,30.02,10.0,NW,4.6,-,N/A,,Mostly Cloudy,310,2013-07-29 14:28:00
10:54 AM,63.0,54.0,72,30.03,10.0,Variable,5.8,-,N/A,,Overcast,0,2013-07-29 14:54:00
11:11 AM,64.4,55.4,73,30.02,10.0,NW,8.1,-,N/A,,Overcast,320,2013-07-29 15:11:00
11:54 AM,63.0,54.0,72,30.04,10.0,West,5.8,-,N/A,,Overcast,280,2013-07-29 15:54:00
12:54 PM,63.0,54.0,72,30.05,10.0,NW,8.1,-,N/A,,Overcast,310,2013-07-29 16:54:00
1:40 PM,60.8,55.4,82,30.06,10.0,NW,9.2,-,0.00,,Overcast,310,2013-07-29 17:40:00
1:54 PM,61.0,53.1,75,30.07,10.0,West,6.9,-,0.00,,Overcast,280,2013-07-29 17:54:00
2:06 PM,62.6,53.6,72,30.06,10.0,Variable,4.6,-,N/A,,Overcast,0,2013-07-29 18:06:00
2:54 PM,63.0,54.0,72,30.07,10.0,WNW,11.5,17.3,N/A,,Overcast,300,2013-07-29 18:54:00
3:54 PM,63.0,55.0,75,30.09,10.0,Variable,5.8,-,N/A,,Overcast,0,2013-07-29 19:54:00
4:05 PM,62.6,53.6,72,30.08,10.0,NW,8.1,-,N/A,,Overcast,310,2013-07-29 20:05:00
4:54 PM,63.0,54.0,72,30.10,10.0,Variable,5.8,-,N/A,,Overcast,0,2013-07-29 20:54:00
5:54 PM,64.0,55.0,73,30.11,10.0,Variable,4.6,-,N/A,,Overcast,0,2013-07-29 21:54:00
6:13 PM,64.4,55.4,73,30.10,10.0,West,6.9,-,N/A,,Overcast,280,2013-07-29 22:13:00
6:29 PM,66.2,55.4,68,30.10,10.0,West,5.8,-,N/A,,Mostly Cloudy,270,2013-07-29 22:29:00
6:54 PM,64.9,55.0,70,30.11,10.0,Variable,4.6,-,N/A,,Partly Cloudy,0,2013-07-29 22:54:00
7:54 PM,66.9,55.9,68,30.12,10.0,WNW,4.6,-,N/A,,Overcast,290,2013-07-29 23:54:00
8:54 PM,64.0,55.9,75,30.13,10.0,WSW,3.5,-,N/A,,Overcast,250,2013-07-30 00:54:00
9:54 PM,62.1,55.9,80,30.14,10.0,Calm,Calm,-,N/A,,Mostly Cloudy,0,2013-07-30 01:54:00
10:54 PM,59.0,55.0,87,30.16,10.0,Calm,Calm,-,N/A,,Clear,0,2013-07-30 02:54:00
11:54 PM,55.0,53.1,93,30.17,10.0,West,4.6,-,N/A,,Clear,260,2013-07-30 03:54:00